createdAt,value
2023-01-13T00:00:18.847Z,7.95
2023-01-13T00:02:46.561Z,6.63
2023-01-13T00:05:14.488Z,7.63
2023-01-13T00:07:43.199Z,7.47
2023-01-13T00:10:12.171Z,7.47
2023-01-13T00:12:40.790Z,7.30
2023-01-13T00:15:09.837Z,7.10
2023-01-13T00:17:39.112Z,7.50
2023-01-13T00:20:07.840Z,7.78
2023-01-13T00:22:35.775Z,7.63
2023-01-13T00:25:04.289Z,7.38
2023-01-13T00:27:32.074Z,6.50
2023-01-13T00:30:00.025Z,6.83
2023-01-13T00:32:28.055Z,7.07
2023-01-13T00:34:56.982Z,6.70
2023-01-13T00:37:24.604Z,6.93
2023-01-13T00:39:52.261Z,6.53
2023-01-13T00:42:37.988Z,7.30
2023-01-13T00:45:06.615Z,7.40
2023-01-13T00:47:34.195Z,7.32
2023-01-13T00:50:03.133Z,7.20
2023-01-13T00:52:32.830Z,6.88
2023-01-13T00:55:00.814Z,7.15
2023-01-13T00:57:28.404Z,7.40
2023-01-13T00:59:56.055Z,7.28
2023-01-13T01:02:23.707Z,7.20
2023-01-13T01:04:51.333Z,7.38
2023-01-13T01:07:20.237Z,6.95
2023-01-13T01:09:47.819Z,7.10
2023-01-13T01:12:15.384Z,8.25
2023-01-13T01:14:42.965Z,7.45
2023-01-13T01:17:10.538Z,7.22
2023-01-13T01:19:38.740Z,7.55
2023-01-13T01:22:06.333Z,7.43
2023-01-13T01:24:35.232Z,7.90
2023-01-13T01:27:02.862Z,8.57
2023-01-13T01:29:30.556Z,7.65
2023-01-13T01:31:58.719Z,7.32
2023-01-13T01:34:26.328Z,7.57
2023-01-13T01:36:53.890Z,8.40
2023-01-13T01:39:21.445Z,7.60
2023-01-13T01:42:04.285Z,8.00
2023-01-13T01:44:52.310Z,8.52
2023-01-13T01:47:20.359Z,8.03
2023-01-13T01:49:48.582Z,7.60
2023-01-13T01:52:18.202Z,8.30
2023-01-13T01:54:53.030Z,7.03
2023-01-13T01:57:24.789Z,7.30
2023-01-13T01:59:53.387Z,8.13
2023-01-13T02:02:21.100Z,6.97
2023-01-13T02:04:52.073Z,7.10
2023-01-13T02:07:22.278Z,6.97
2023-01-13T02:09:50.046Z,6.57
2023-01-13T02:12:30.221Z,6.25
2023-01-13T02:15:01.365Z,7.20
2023-01-13T02:17:39.688Z,6.05
2023-01-13T02:20:36.754Z,6.03
2023-01-13T02:23:57.242Z,5.90
2023-01-13T02:27:02.193Z,5.40
2023-01-13T02:30:05.078Z,6.35
2023-01-13T02:32:36.485Z,6.38
2023-01-13T02:35:07.665Z,6.40
2023-01-13T02:37:38.439Z,5.93
2023-01-13T02:40:10.997Z,5.95
2023-01-13T02:43:04.742Z,6.30
2023-01-13T02:45:39.156Z,5.87
2023-01-13T02:48:09.243Z,6.35
2023-01-13T02:50:39.753Z,5.25
2023-01-13T02:53:10.682Z,5.22
2023-01-13T02:55:41.041Z,5.07
2023-01-13T02:58:10.689Z,6.53
2023-01-13T03:00:40.333Z,6.65
2023-01-13T03:03:07.924Z,6.40
2023-01-13T03:05:36.573Z,6.43
2023-01-13T03:08:24.233Z,6.25
2023-01-13T03:11:00.295Z,5.68
2023-01-13T03:13:47.186Z,6.60
2023-01-13T03:16:21.902Z,5.83
2023-01-13T03:18:54.342Z,6.18
2023-01-13T03:21:25.794Z,5.60
2023-01-13T03:23:56.710Z,6.22
2023-01-13T03:26:28.838Z,5.53
2023-01-13T03:29:00.773Z,5.57
2023-01-13T03:31:31.800Z,6.10
2023-01-13T03:34:03.249Z,5.43
2023-01-13T03:36:31.747Z,6.10
2023-01-13T03:39:02.691Z,5.93
2023-01-13T03:41:33.944Z,5.95
2023-01-13T03:44:22.504Z,5.63
2023-01-13T03:47:00.590Z,5.23
2023-01-13T03:49:31.023Z,5.65
2023-01-13T03:52:03.633Z,6.03
2023-01-13T03:54:33.456Z,5.77
2023-01-13T03:57:05.000Z,5.40
2023-01-13T03:59:37.053Z,6.43
2023-01-13T04:02:09.431Z,5.35
2023-01-13T04:04:40.222Z,5.25
2023-01-13T04:07:14.751Z,5.80
2023-01-13T04:09:49.945Z,6.20
2023-01-13T04:12:22.854Z,4.95
2023-01-13T04:14:50.910Z,5.20
2023-01-13T04:17:20.025Z,5.67
2023-01-13T04:19:47.809Z,5.35
2023-01-13T04:22:15.503Z,5.47
2023-01-13T04:24:43.062Z,5.43
2023-01-13T04:27:10.674Z,4.75
2023-01-13T04:29:38.274Z,5.68
2023-01-13T04:32:05.976Z,5.43
2023-01-13T04:34:34.919Z,5.13
2023-01-13T04:37:02.834Z,4.93
2023-01-13T04:39:30.416Z,5.50
2023-01-13T04:42:02.378Z,4.97
2023-01-13T04:44:31.726Z,5.40
2023-01-13T04:46:59.436Z,4.90
2023-01-13T04:49:26.973Z,5.35
2023-01-13T04:51:55.899Z,5.03
2023-01-13T04:54:23.498Z,4.90
2023-01-13T04:56:51.131Z,4.75
2023-01-13T04:59:18.748Z,4.80
2023-01-13T05:01:46.426Z,5.78
2023-01-13T05:04:15.497Z,5.60
2023-01-13T05:06:43.184Z,5.57
2023-01-13T05:09:13.377Z,4.57
2023-01-13T05:11:58.496Z,5.95
2023-01-13T05:14:43.766Z,5.47
2023-01-13T05:17:12.072Z,5.78
2023-01-13T05:19:40.725Z,5.47
2023-01-13T05:22:25.652Z,4.55
2023-01-13T05:25:12.314Z,5.15
2023-01-13T05:27:39.853Z,5.57
2023-01-13T05:30:09.576Z,5.32
2023-01-13T05:32:37.143Z,5.07
2023-01-13T05:35:05.116Z,5.50
2023-01-13T05:37:32.697Z,4.70
2023-01-13T05:40:19.300Z,5.45
2023-01-13T05:43:04.652Z,4.65
2023-01-13T05:45:32.899Z,5.13
2023-01-13T05:48:00.580Z,5.68
2023-01-13T05:50:28.231Z,5.00
2023-01-13T05:52:55.843Z,5.07
2023-01-13T05:55:24.825Z,5.55
2023-01-13T05:57:52.437Z,5.80
2023-01-13T06:00:21.036Z,5.53
2023-01-13T06:02:49.158Z,5.68
2023-01-13T06:05:16.808Z,5.80
2023-01-13T06:07:44.403Z,6.15
2023-01-13T06:10:12.656Z,5.93
2023-01-13T06:12:41.576Z,5.45
2023-01-13T06:15:09.788Z,4.50
2023-01-13T06:17:37.342Z,4.32
2023-01-13T06:20:08.205Z,5.32
2023-01-13T06:22:39.880Z,4.00
2023-01-13T06:25:11.060Z,5.28
2023-01-13T06:27:38.915Z,4.85
2023-01-13T06:30:09.564Z,5.07
2023-01-13T06:32:40.726Z,4.43
2023-01-13T06:35:11.786Z,6.82
2023-01-13T06:37:39.601Z,4.75
2023-01-13T06:40:08.214Z,4.57
2023-01-13T06:42:55.151Z,4.00
2023-01-13T06:45:24.452Z,5.20
2023-01-13T06:47:52.525Z,4.80
2023-01-13T06:50:20.131Z,4.30
2023-01-13T06:52:47.765Z,4.65
2023-01-13T06:55:15.413Z,4.10
2023-01-13T06:57:52.731Z,4.75
2023-01-13T07:00:21.467Z,3.67
2023-01-13T07:02:50.618Z,4.32
2023-01-13T07:05:20.099Z,4.15
2023-01-13T07:07:47.726Z,4.97
2023-01-13T07:10:22.232Z,4.63
2023-01-13T07:13:08.058Z,4.60
2023-01-13T07:15:35.962Z,4.13
2023-01-13T07:18:05.058Z,4.50
2023-01-13T07:20:32.640Z,4.63
2023-01-13T07:23:00.178Z,5.00
2023-01-13T07:25:27.852Z,6.13
2023-01-13T07:27:58.466Z,5.10
2023-01-13T07:30:26.089Z,4.38
2023-01-13T07:32:53.679Z,5.70
2023-01-13T07:35:23.431Z,4.38
2023-01-13T07:40:18.832Z,3.90
2023-01-13T07:43:03.920Z,4.20
2023-01-13T07:45:31.518Z,5.05
2023-01-13T07:47:59.132Z,4.70
2023-01-13T07:50:28.067Z,5.05
2023-01-13T07:52:58.679Z,5.60
2023-01-13T07:55:26.373Z,4.65
2023-01-13T07:57:53.929Z,3.90
2023-01-13T08:00:22.428Z,4.40
2023-01-13T08:02:50.054Z,5.78
2023-01-13T08:05:18.168Z,3.72
2023-01-13T08:07:47.099Z,4.05
2023-01-13T08:10:14.716Z,4.10
2023-01-13T08:12:59.863Z,4.40
2023-01-13T08:15:27.459Z,4.68
2023-01-13T08:17:55.040Z,4.72
2023-01-13T08:20:22.616Z,3.63
2023-01-13T08:22:51.502Z,4.03
2023-01-13T08:25:19.177Z,4.90
2023-01-13T08:27:46.710Z,3.92
2023-01-13T08:30:14.507Z,5.18
2023-01-13T08:32:44.666Z,4.80
2023-01-13T08:35:12.956Z,4.13
2023-01-13T08:37:40.894Z,4.68
2023-01-13T08:40:11.489Z,3.15
2023-01-13T08:42:39.402Z,4.07
2023-01-13T08:45:08.406Z,3.22
2023-01-13T08:47:36.134Z,3.75
2023-01-13T08:50:03.925Z,4.30
2023-01-13T08:52:31.948Z,4.18
2023-01-13T08:54:59.583Z,4.90
2023-01-13T08:57:28.721Z,4.13
2023-01-13T08:59:56.443Z,3.35
2023-01-13T09:02:25.332Z,3.08
2023-01-13T09:04:53.184Z,3.40
2023-01-13T09:07:21.299Z,3.72
2023-01-13T09:09:48.890Z,3.72
2023-01-13T09:12:34.889Z,3.03
2023-01-13T09:15:06.159Z,3.15
2023-01-13T09:17:33.951Z,3.22
2023-01-13T09:20:01.675Z,3.15
2023-01-13T09:22:29.316Z,3.35
2023-01-13T09:24:57.257Z,4.15
2023-01-13T09:27:25.144Z,3.60
2023-01-13T09:29:52.816Z,2.78
2023-01-13T09:32:21.843Z,3.95
2023-01-13T09:35:00.438Z,3.08
2023-01-13T09:37:29.796Z,3.47
2023-01-13T09:39:57.385Z,3.40
2023-01-13T09:42:51.246Z,3.20
2023-01-13T09:45:21.066Z,4.50
2023-01-13T09:47:55.789Z,3.45
2023-01-13T09:50:30.664Z,2.92
2023-01-13T09:52:58.552Z,2.92
2023-01-13T09:55:30.233Z,3.40
2023-01-13T09:57:57.949Z,3.95
2023-01-13T10:00:28.266Z,3.17
2023-01-13T10:03:10.475Z,3.20
2023-01-13T10:05:39.404Z,3.15
2023-01-13T10:08:12.104Z,3.80
2023-01-13T10:10:48.260Z,4.35
2023-01-13T10:13:20.052Z,3.45
2023-01-13T10:16:07.124Z,3.92
2023-01-13T10:18:42.638Z,3.38
2023-01-13T10:21:21.147Z,3.03
2023-01-13T10:23:55.367Z,3.10
2023-01-13T10:26:36.944Z,3.13
2023-01-13T10:29:04.580Z,2.75
2023-01-13T10:31:32.233Z,3.42
2023-01-13T10:34:03.791Z,2.90
2023-01-13T10:36:31.534Z,3.35
2023-01-13T10:39:08.943Z,3.63
2023-01-13T10:41:37.194Z,3.50
2023-01-13T10:44:09.655Z,3.25
2023-01-13T10:46:52.244Z,2.97
2023-01-13T10:49:30.969Z,2.70
2023-01-13T10:51:58.797Z,2.70
2023-01-13T10:54:26.762Z,2.58
2023-01-13T10:57:16.163Z,3.17
2023-01-13T10:59:43.970Z,2.58
2023-01-13T11:02:26.481Z,2.60
2023-01-13T11:05:13.844Z,3.47
2023-01-13T11:07:42.936Z,2.70
2023-01-13T11:10:19.726Z,2.75
2023-01-13T11:12:53.964Z,2.80
2023-01-13T11:15:23.914Z,2.90
2023-01-13T11:18:00.405Z,3.90
2023-01-13T11:20:33.735Z,3.35
2023-01-13T11:23:04.552Z,3.45
2023-01-13T11:25:41.819Z,3.33
2023-01-13T11:28:20.553Z,2.85
2023-01-13T11:30:51.369Z,3.10
2023-01-13T11:33:28.565Z,2.83
2023-01-13T11:36:04.516Z,2.85
2023-01-13T11:38:34.319Z,4.13
2023-01-13T11:41:08.133Z,2.90
2023-01-13T13:48:20.745Z,2.42
2023-01-13T13:50:49.105Z,2.60
2023-01-13T13:53:18.291Z,3.00
2023-01-13T13:55:54.380Z,2.20
2023-01-13T13:58:26.201Z,2.30
2023-01-13T14:00:54.631Z,2.95
2023-01-13T14:03:26.554Z,3.10
2023-01-13T14:05:56.718Z,2.50
2023-01-13T14:08:25.085Z,3.03
2023-01-13T14:10:52.905Z,2.90
2023-01-13T14:13:24.121Z,3.00
2023-01-13T14:15:57.197Z,3.35
2023-01-13T14:18:25.982Z,3.23
2023-01-13T14:20:55.429Z,3.10
2023-01-13T14:23:26.499Z,2.83
2023-01-13T14:25:54.516Z,3.00
2023-01-13T14:28:26.557Z,2.85
2023-01-13T14:30:54.825Z,2.78
2023-01-13T14:33:24.882Z,3.17
2023-01-13T14:36:06.923Z,2.72
2023-01-13T14:38:34.581Z,3.15
2023-01-13T14:41:11.404Z,2.78
2023-01-13T14:43:45.405Z,3.25
2023-01-13T14:46:13.706Z,3.17
2023-01-13T14:48:43.262Z,2.90
2023-01-13T14:51:12.774Z,3.17
2023-01-13T14:53:45.044Z,2.90
2023-01-13T14:56:38.480Z,3.10
2023-01-13T14:59:48.687Z,2.85
2023-01-13T15:02:38.094Z,3.17
2023-01-13T15:05:39.861Z,3.40
2023-01-13T15:08:36.017Z,3.17
2023-01-13T15:11:05.309Z,3.63
2023-01-13T15:13:37.397Z,3.17
2023-01-13T15:16:08.376Z,3.38
2023-01-13T15:18:40.077Z,2.95
2023-01-13T15:21:08.151Z,2.93
2023-01-13T15:23:35.865Z,3.15
2023-01-13T15:26:03.835Z,3.58
2023-01-13T15:28:32.909Z,3.10
2023-01-13T15:31:03.545Z,3.08
2023-01-13T15:33:32.590Z,2.90
2023-01-13T15:36:01.763Z,3.33
2023-01-13T15:38:29.422Z,2.97
2023-01-13T15:40:57.050Z,3.38
2023-01-13T15:43:43.135Z,3.50
2023-01-13T15:46:31.468Z,3.50
2023-01-13T15:49:02.010Z,3.10
2023-01-13T15:51:29.635Z,3.40
2023-01-13T15:54:00.555Z,3.33
2023-01-13T15:56:28.182Z,3.40
2023-01-13T15:58:55.984Z,3.20
2023-01-13T16:01:23.870Z,3.05
2023-01-13T16:03:52.218Z,3.58
2023-01-13T16:06:22.899Z,3.42
2023-01-13T16:08:50.538Z,3.50
2023-01-13T16:11:18.395Z,3.65
2023-01-13T16:13:46.121Z,2.80
2023-01-13T16:16:18.777Z,3.35
2023-01-13T16:18:46.805Z,3.17
2023-01-13T16:21:14.895Z,3.67
2023-01-13T16:23:43.916Z,3.60
2023-01-13T16:26:19.291Z,3.58
2023-01-13T16:28:46.998Z,3.45
2023-01-13T16:31:22.851Z,3.30
2023-01-13T16:33:50.626Z,3.67
2023-01-13T16:36:20.161Z,3.58
2023-01-13T16:38:50.143Z,3.47
2023-01-13T16:41:18.159Z,3.63
2023-01-13T16:43:46.001Z,3.03
2023-01-13T16:46:25.315Z,2.83
2023-01-13T16:48:54.169Z,3.03
2023-01-13T16:51:22.305Z,3.20
2023-01-13T16:53:51.725Z,3.10
2023-01-13T16:56:24.351Z,4.10
2023-01-13T16:58:52.749Z,3.17
2023-01-13T17:01:23.123Z,3.70
2023-01-13T17:03:51.375Z,3.72
2023-01-13T17:06:21.597Z,3.67
2023-01-13T17:08:49.303Z,3.40
2023-01-13T17:11:18.307Z,3.65
2023-01-13T17:13:45.974Z,3.63
2023-01-13T17:16:21.928Z,3.67
2023-01-13T17:18:49.801Z,4.32
2023-01-13T17:21:17.856Z,3.30
2023-01-13T17:23:46.085Z,3.97
2023-01-13T17:26:28.949Z,3.10
2023-01-13T17:28:56.859Z,3.33
2023-01-13T17:31:24.527Z,3.50
2023-01-13T17:33:52.161Z,3.20
2023-01-13T17:36:19.832Z,3.17
2023-01-13T17:38:47.459Z,2.70
2023-01-13T17:41:15.155Z,2.72
2023-01-13T17:43:44.135Z,2.92
2023-01-13T17:46:12.650Z,3.70
2023-01-13T17:48:40.341Z,3.30
2023-01-13T17:51:10.032Z,2.78
2023-01-13T17:53:40.752Z,3.75
2023-01-13T17:56:09.521Z,3.05
2023-01-13T17:58:37.495Z,2.65
2023-01-13T18:01:10.544Z,2.63
2023-01-13T18:03:38.775Z,3.30
2023-01-13T18:06:07.690Z,3.30
2023-01-13T18:08:35.294Z,3.38
2023-01-13T18:11:03.357Z,3.20
2023-01-13T18:13:31.342Z,3.30
2023-01-13T18:16:04.573Z,2.75
2023-01-13T18:18:34.376Z,3.17
2023-01-13T18:21:19.886Z,2.90
2023-01-13T18:24:10.478Z,2.58
2023-01-13T18:26:55.420Z,2.78
2023-01-13T18:29:23.313Z,2.80
2023-01-13T18:31:52.421Z,2.65
2023-01-13T18:34:21.697Z,2.83
2023-01-13T18:36:49.386Z,2.67
2023-01-13T18:39:17.965Z,2.50
2023-01-13T18:42:03.219Z,2.42
2023-01-13T18:44:30.813Z,2.35
2023-01-13T18:46:58.517Z,2.58
2023-01-13T18:49:28.035Z,2.33
2023-01-13T18:51:55.701Z,2.70
2023-01-13T18:54:23.525Z,2.60
2023-01-13T18:56:51.101Z,2.60
2023-01-13T18:59:18.920Z,2.78
2023-01-13T19:01:46.616Z,3.08
2023-01-13T19:04:16.184Z,3.08
2023-01-13T19:06:49.095Z,2.90
2023-01-13T19:09:16.801Z,2.50
2023-01-13T19:11:46.657Z,2.90
2023-01-13T19:14:33.867Z,2.60
2023-01-13T19:17:02.288Z,2.92
2023-01-13T19:19:29.932Z,2.70
2023-01-13T19:21:58.996Z,2.90
2023-01-13T19:24:26.948Z,2.75
2023-01-13T19:26:55.296Z,3.13
2023-01-13T19:29:23.084Z,3.15
2023-01-13T19:31:50.740Z,2.95
2023-01-13T19:34:18.951Z,2.90
2023-01-13T19:36:46.575Z,3.10
2023-01-13T19:39:15.534Z,3.67
2023-01-13T19:42:00.756Z,3.00
2023-01-13T19:44:57.535Z,3.47
2023-01-13T19:47:25.115Z,3.05
2023-01-13T19:49:52.736Z,3.13
2023-01-13T19:52:20.572Z,3.58
2023-01-13T19:54:49.765Z,3.08
2023-01-13T19:57:17.429Z,3.25
2023-01-13T19:59:45.110Z,3.55
2023-01-13T20:02:15.754Z,4.25
2023-01-13T20:04:45.046Z,3.58
2023-01-13T20:07:14.557Z,2.50
2023-01-13T20:09:44.250Z,2.88
2023-01-13T20:12:13.926Z,3.05
2023-01-13T20:14:41.795Z,3.45
2023-01-13T20:17:09.786Z,3.78
2023-01-13T20:19:37.527Z,4.40
2023-01-13T20:22:05.161Z,3.30
2023-01-13T20:24:32.880Z,3.67
2023-01-13T20:27:01.077Z,3.38
2023-01-13T20:29:30.169Z,3.55
2023-01-13T20:31:57.830Z,3.28
2023-01-13T20:34:26.037Z,3.40
2023-01-13T20:36:54.241Z,2.97
2023-01-13T20:39:23.460Z,3.10
2023-01-13T20:42:08.412Z,3.85
2023-01-13T20:44:37.448Z,3.28
2023-01-13T20:47:05.533Z,3.00
2023-01-13T20:49:34.305Z,3.63
2023-01-13T20:52:03.516Z,3.60
2023-01-13T20:54:31.185Z,3.25
2023-01-13T20:57:00.440Z,3.15
2023-01-13T20:59:28.085Z,3.85
2023-01-13T21:01:57.069Z,2.97
2023-01-13T21:04:24.729Z,3.47
2023-01-13T21:06:52.542Z,3.40
2023-01-13T21:09:20.388Z,3.15
2023-01-13T21:12:05.450Z,3.20
2023-01-13T21:14:50.929Z,4.13
2023-01-13T21:17:34.065Z,3.33
2023-01-13T21:20:04.081Z,3.60
2023-01-13T21:22:32.057Z,2.78
2023-01-13T21:24:59.798Z,3.45
2023-01-13T21:27:27.447Z,2.97
2023-01-13T21:29:55.078Z,3.35
2023-01-13T21:32:24.185Z,3.40
2023-01-13T21:34:51.836Z,3.33
2023-01-13T21:37:19.446Z,3.40
2023-01-13T21:39:47.124Z,3.40
2023-01-13T21:42:34.655Z,3.22
2023-01-13T21:45:19.916Z,3.47
2023-01-13T21:47:52.056Z,3.55
2023-01-13T21:50:21.151Z,3.63
2023-01-13T21:52:50.200Z,3.92
2023-01-13T21:55:20.381Z,3.00
2023-01-13T21:57:48.478Z,3.10
2023-01-13T22:00:17.362Z,3.30
2023-01-13T22:02:45.309Z,4.05
2023-01-13T22:05:15.758Z,3.45
2023-01-13T22:07:43.805Z,3.50
2023-01-13T22:10:13.127Z,3.78
2023-01-13T22:12:41.073Z,3.40
2023-01-13T22:15:10.511Z,3.50
2023-01-13T22:17:38.193Z,3.63
2023-01-13T22:20:07.041Z,3.47
2023-01-13T22:22:36.977Z,4.00
2023-01-13T22:25:06.923Z,3.60
2023-01-13T22:27:39.398Z,3.80
2023-01-13T22:30:08.462Z,3.90
2023-01-13T22:32:37.711Z,3.53
2023-01-13T22:35:06.473Z,3.53
2023-01-13T22:37:34.183Z,3.13
2023-01-13T22:40:03.291Z,2.47
2023-01-13T22:42:30.940Z,3.10
2023-01-13T22:44:58.755Z,3.70
2023-01-13T22:47:26.634Z,3.60
2023-01-13T22:49:54.356Z,3.60
2023-01-13T22:52:22.604Z,3.78
2023-01-13T22:54:50.229Z,3.40
2023-01-13T22:57:19.204Z,3.40
2023-01-13T22:59:46.939Z,3.53
2023-01-13T23:02:14.596Z,3.17
2023-01-13T23:04:42.262Z,3.60
2023-01-13T23:07:10.051Z,3.20
2023-01-13T23:09:37.809Z,3.50
2023-01-13T23:12:06.007Z,3.13
2023-01-13T23:14:35.107Z,3.47
2023-01-13T23:17:02.727Z,3.97
2023-01-13T23:19:30.431Z,3.70
2023-01-13T23:21:58.006Z,3.65
2023-01-13T23:24:27.972Z,3.40
2023-01-13T23:26:55.788Z,3.42
2023-01-13T23:29:23.443Z,3.20
2023-01-13T23:31:52.480Z,4.22
2023-01-13T23:34:20.065Z,3.85
2023-01-13T23:36:47.817Z,3.28
2023-01-13T23:39:15.581Z,3.38
2023-01-13T23:41:43.230Z,3.60
2023-01-13T23:44:11.048Z,3.63
2023-01-13T23:46:38.725Z,3.88
2023-01-13T23:49:07.820Z,3.75
2023-01-13T23:51:35.487Z,3.80
2023-01-13T23:54:03.211Z,3.80
2023-01-13T23:56:31.960Z,3.55
2023-01-13T23:59:00.189Z,4.13
